CFB Shearwater

Airport
ICAO code: 
CYAW
Summary
ICAO Region: 
NAM
Territory: 
Location: 
Shearwater, Nova Scotia,
Coordinates: 
Aerial View: 
44° 38' 22.927" N, 63° 29' 57.844" W
Metar
Observation
CYAW 032000Z 28013G20KT 15SM SCT023 BKN043 03/M00 A2937 RMK CU4SC2 DA-532FT LAST OBS/NXT 061100 UTC SLP946
Station
Shearwater, N. S.
Date/Time
2021-12-03 20:00:00
Wind direction
280°
Wind speed
13 kts
Lowest cloud amount
scattered clouds
Temperature
3°C
Dew point
-0°C
Humidity
80%
Weather condition
n/a

Description

Canadian Forces base to the east of Halifax.

Climatology

Humid Continental climate (Köppen climate classification Dfb) - Variable weather patterns and a large seasonal temperature variance. Summers are often warm and humid with frequent thunderstorms and winters can be very cold with frequent snowfall and persistent snow cover.

Runways

Designator Length Width Surface Rops
16H/34H 1067 34 ASPHALT No/No
10/28 1735 61 ASP No/No
16/34 2743 61 ASP No/No
Airport map: 
Aerial View: 

SKYbrary Partners:

Safety knowledge contributed by: